Terminal Aerodrome Forecast
Issued by NWS

Home | Current Version | Previous Version | Text Only | Print | Product List | Glossary On
Versions: 1 2 3 4 5 6 7 8 9 10 11 12 13 14 15 16 17 18 19 20
000
FTUS43 KSGF 270100 AAA
TAFJLN
TAF AMD
KJLN 270101Z 2701/2724 32011KT P6SM SCT050
      TEMPO 2701/2703 31012G22KT
     FM270600 VRB03KT P6SM FEW050
     FM271800 13005KT P6SM SKC=

USA.gov is the U.S. government's official web portal to all federal, state and local government web resources and services.